createdAt,value
2023-02-15T00:02:08.737Z,2.62
2023-02-15T00:04:48.837Z,2.46
2023-02-15T00:07:20.320Z,2.43
2023-02-15T00:09:48.859Z,2.38
2023-02-15T00:12:17.471Z,2.36
2023-02-15T00:14:45.622Z,2.42
2023-02-15T00:17:13.796Z,2.38
2023-02-15T00:19:42.268Z,2.63
2023-02-15T00:22:10.986Z,2.57
2023-02-15T00:24:40.491Z,2.60
2023-02-15T00:27:10.330Z,2.59
2023-02-15T00:29:38.595Z,2.59
2023-02-15T00:32:07.170Z,2.67
2023-02-15T00:34:35.347Z,2.76
2023-02-15T00:37:03.572Z,2.67
2023-02-15T00:39:31.679Z,2.67
2023-02-15T00:42:01.243Z,2.74
2023-02-15T00:44:29.385Z,2.77
2023-02-15T00:46:57.482Z,2.71
2023-02-15T00:49:25.697Z,2.53
2023-02-15T00:51:53.821Z,2.58
2023-02-15T00:54:22.292Z,2.60
2023-02-15T00:56:51.119Z,2.70
2023-02-15T00:59:20.597Z,2.35
2023-02-15T01:01:48.710Z,2.69
2023-02-15T01:04:16.779Z,2.72
2023-02-15T01:06:44.842Z,2.77
2023-02-15T01:09:14.691Z,2.88
2023-02-15T01:11:42.942Z,2.91
2023-02-15T01:14:11.058Z,2.76
2023-02-15T01:16:40.582Z,2.81
2023-02-15T01:19:08.692Z,2.67
2023-02-15T01:21:36.916Z,2.78
2023-02-15T01:24:05.405Z,2.85
2023-02-15T01:26:33.448Z,2.90
2023-02-15T01:29:01.590Z,2.91
2023-02-15T01:31:29.822Z,2.89
2023-02-15T01:33:59.519Z,2.89
2023-02-15T01:36:27.679Z,2.92
2023-02-15T01:38:55.845Z,2.69
2023-02-15T01:41:25.093Z,2.67
2023-02-15T01:43:56.085Z,2.95
2023-02-15T01:46:29.801Z,2.95
2023-02-15T01:49:04.482Z,2.51
2023-02-15T01:51:35.359Z,2.94
2023-02-15T01:54:08.121Z,2.78
2023-02-15T01:56:40.205Z,2.83
2023-02-15T01:59:14.025Z,2.96
2023-02-15T02:01:42.360Z,2.90
2023-02-15T02:04:17.566Z,2.90
2023-02-15T02:06:48.905Z,2.91
2023-02-15T02:09:17.382Z,2.92
2023-02-15T02:11:48.464Z,3.03
2023-02-15T02:14:17.763Z,2.96
2023-02-15T02:16:55.081Z,2.87
2023-02-15T02:19:53.547Z,2.91
2023-02-15T02:22:56.643Z,2.94
2023-02-15T02:25:46.636Z,2.94
2023-02-15T02:28:35.542Z,2.90
2023-02-15T02:31:28.046Z,2.86
2023-02-15T02:34:04.008Z,2.87
2023-02-15T02:36:42.644Z,2.66
2023-02-15T02:39:26.033Z,2.93
2023-02-15T02:42:02.519Z,2.93
2023-02-15T02:44:37.281Z,3.00
2023-02-15T02:47:12.216Z,3.00
2023-02-15T02:49:44.344Z,2.98
2023-02-15T02:52:50.678Z,2.95
2023-02-15T02:55:29.957Z,3.09
2023-02-15T02:58:02.802Z,2.27
2023-02-15T03:00:35.308Z,3.19
2023-02-15T03:03:08.770Z,2.82
2023-02-15T03:05:43.123Z,2.59
2023-02-15T03:08:11.990Z,3.15
2023-02-15T03:10:42.459Z,2.93
2023-02-15T03:13:11.613Z,3.07
2023-02-15T03:16:00.838Z,3.04
2023-02-15T03:18:34.487Z,3.04
2023-02-15T03:21:06.427Z,3.02
2023-02-15T03:23:35.869Z,3.05
2023-02-15T03:26:08.170Z,3.07
2023-02-15T03:28:40.463Z,2.76
2023-02-15T03:31:10.913Z,3.11
2023-02-15T03:33:44.709Z,3.11
2023-02-15T03:36:20.973Z,2.73
2023-02-15T03:38:55.453Z,3.07
2023-02-15T03:41:28.778Z,3.08
2023-02-15T03:44:01.059Z,3.15
2023-02-15T03:46:35.287Z,3.24
2023-02-15T03:49:09.517Z,3.27
2023-02-15T03:51:42.394Z,3.19
2023-02-15T03:54:12.185Z,2.55
2023-02-15T03:56:42.829Z,3.12
2023-02-15T03:59:28.743Z,2.97
2023-02-15T04:02:07.818Z,2.46
2023-02-15T04:04:38.341Z,3.01
2023-02-15T04:07:09.869Z,3.13
2023-02-15T04:09:55.317Z,3.11
2023-02-15T04:12:23.388Z,3.16
2023-02-15T04:15:08.920Z,3.15
2023-02-15T04:17:38.824Z,2.80
2023-02-15T04:20:25.661Z,2.11
2023-02-15T04:23:12.278Z,3.16
2023-02-15T04:25:40.920Z,3.15
2023-02-15T04:28:09.351Z,3.14
2023-02-15T04:30:37.592Z,3.08
2023-02-15T04:33:05.743Z,3.09
2023-02-15T04:35:34.641Z,3.14
2023-02-15T04:38:04.236Z,3.14
2023-02-15T04:40:32.479Z,3.11
2023-02-15T04:43:00.638Z,3.12
2023-02-15T04:45:29.329Z,3.17
2023-02-15T04:47:57.724Z,3.23
2023-02-15T04:50:25.899Z,3.21
2023-02-15T04:52:54.092Z,3.24
2023-02-15T04:55:23.669Z,3.08
2023-02-15T04:57:51.808Z,3.25
2023-02-15T05:00:20.703Z,3.28
2023-02-15T05:02:48.894Z,3.21
2023-02-15T05:05:17.410Z,3.33
2023-02-15T05:07:45.485Z,3.24
2023-02-15T05:10:13.594Z,3.19
2023-02-15T05:12:43.139Z,3.15
2023-02-15T05:15:12.084Z,3.20
2023-02-15T05:17:40.525Z,3.21
2023-02-15T05:20:09.450Z,3.14
2023-02-15T05:22:37.854Z,3.26
2023-02-15T05:25:23.564Z,3.23
2023-02-15T05:28:10.543Z,3.24
2023-02-15T05:30:40.825Z,3.25
2023-02-15T05:33:09.498Z,3.31
2023-02-15T05:35:38.002Z,3.31
2023-02-15T05:38:06.144Z,3.39
2023-02-15T05:40:34.270Z,3.39
2023-02-15T05:43:03.790Z,3.26
2023-02-15T05:45:32.127Z,3.10
2023-02-15T05:48:00.382Z,3.15
2023-02-15T05:50:28.927Z,3.14
2023-02-15T05:52:57.739Z,3.18
2023-02-15T05:55:25.880Z,3.17
2023-02-15T05:57:54.050Z,3.07
2023-02-15T06:00:24.370Z,3.18
2023-02-15T06:02:52.504Z,3.33
2023-02-15T06:05:20.773Z,3.29
2023-02-15T06:07:48.962Z,3.13
2023-02-15T06:10:17.580Z,3.03
2023-02-15T06:12:46.382Z,2.24
2023-02-15T06:15:15.103Z,2.93
2023-02-15T06:17:45.069Z,2.94
2023-02-15T06:20:14.294Z,2.92
2023-02-15T06:22:42.515Z,2.78
2023-02-15T06:25:12.331Z,2.72
2023-02-15T06:27:43.475Z,2.64
2023-02-15T06:30:13.210Z,2.62
2023-02-15T06:32:41.736Z,2.46
2023-02-15T06:35:11.506Z,2.61
2023-02-15T06:37:40.822Z,2.58
2023-02-15T06:40:10.393Z,2.61
2023-02-15T06:42:38.698Z,2.64
2023-02-15T06:45:08.486Z,2.65
2023-02-15T06:47:37.144Z,2.68
2023-02-15T06:50:06.166Z,2.36
2023-02-15T06:52:36.317Z,2.64
2023-02-15T06:55:05.067Z,2.66
2023-02-15T06:57:34.257Z,2.62
2023-02-15T07:00:02.421Z,2.61
2023-02-15T07:02:30.645Z,2.50
2023-02-15T07:04:59.012Z,2.70
2023-02-15T07:07:27.360Z,2.73
2023-02-15T07:09:57.006Z,2.72
2023-02-15T07:12:42.440Z,3.00
2023-02-15T07:15:11.488Z,3.02
2023-02-15T07:17:39.861Z,2.86
2023-02-15T07:20:11.339Z,2.87
2023-02-15T07:22:40.014Z,3.02
2023-02-15T07:25:11.795Z,2.86
2023-02-15T07:27:40.473Z,2.88
2023-02-15T07:30:10.980Z,3.05
2023-02-15T07:32:59.639Z,3.06
2023-02-15T07:35:28.482Z,3.02
2023-02-15T07:37:56.770Z,3.01
2023-02-15T07:40:26.558Z,2.99
2023-02-15T07:42:55.948Z,3.00
2023-02-15T07:45:24.674Z,2.74
2023-02-15T07:47:52.900Z,3.01
2023-02-15T07:50:21.095Z,3.00
2023-02-15T07:52:49.342Z,3.11
2023-02-15T07:55:17.559Z,3.15
2023-02-15T07:57:48.487Z,2.87
2023-02-15T08:00:19.248Z,3.20
2023-02-15T08:03:10.838Z,3.16
2023-02-15T08:05:39.240Z,3.49
2023-02-15T08:08:07.866Z,3.49
2023-02-15T08:10:54.694Z,3.45
2023-02-15T08:13:24.315Z,3.43
2023-02-15T08:15:52.950Z,3.24
2023-02-15T08:18:21.288Z,3.33
2023-02-15T08:20:51.837Z,3.50
2023-02-15T08:23:20.612Z,3.67
2023-02-15T08:25:48.872Z,3.68
2023-02-15T08:28:17.148Z,3.32
2023-02-15T08:30:46.808Z,3.89
2023-02-15T08:33:15.064Z,4.13
2023-02-15T08:35:43.298Z,4.18
2023-02-15T08:38:11.569Z,4.14
2023-02-15T08:40:40.285Z,4.28
2023-02-15T08:43:08.548Z,4.37
2023-02-15T08:45:36.917Z,4.26
2023-02-15T08:48:07.034Z,4.18
2023-02-15T08:50:35.220Z,4.13
2023-02-15T08:53:03.458Z,4.05
2023-02-15T08:55:31.719Z,4.08
2023-02-15T08:58:00.091Z,3.56
2023-02-15T09:00:29.470Z,4.21
2023-02-15T09:02:57.642Z,4.18
2023-02-15T09:05:27.342Z,4.33
2023-02-15T09:07:55.554Z,3.52
2023-02-15T09:10:23.760Z,4.20
2023-02-15T09:12:52.671Z,4.41
2023-02-15T09:15:20.833Z,4.45
2023-02-15T09:17:49.122Z,4.50
2023-02-15T09:20:17.509Z,3.95
2023-02-15T09:22:47.387Z,4.55
2023-02-15T09:25:15.752Z,4.48
2023-02-15T09:27:44.479Z,4.50
2023-02-15T09:30:14.049Z,4.40
2023-02-15T09:32:42.176Z,4.27
2023-02-15T09:35:10.447Z,4.22
2023-02-15T09:37:38.648Z,4.19
2023-02-15T09:40:09.256Z,4.13
2023-02-15T09:43:03.025Z,4.01
2023-02-15T09:45:48.461Z,3.96
2023-02-15T09:48:31.669Z,3.97
2023-02-15T09:51:12.498Z,4.26
2023-02-15T09:54:02.152Z,4.44
2023-02-15T09:56:38.621Z,4.51
2023-02-15T09:59:16.072Z,4.50
2023-02-15T10:01:50.771Z,4.23
2023-02-15T10:04:35.186Z,4.62
2023-02-15T10:07:19.600Z,4.72
2023-02-15T10:10:00.720Z,4.75
2023-02-15T10:12:49.183Z,4.51
2023-02-15T10:15:30.202Z,4.81
2023-02-15T10:18:14.228Z,4.78
2023-02-15T10:20:58.861Z,4.97
2023-02-15T10:23:44.143Z,4.79
2023-02-15T10:26:18.999Z,4.96
2023-02-15T10:28:51.434Z,5.03
2023-02-15T10:31:26.638Z,5.15
2023-02-15T10:34:12.168Z,5.04
2023-02-15T10:37:11.732Z,5.24
2023-02-15T10:39:51.628Z,5.03
2023-02-15T10:42:31.900Z,5.28
2023-02-15T10:45:15.593Z,5.11
2023-02-15T10:48:15.034Z,5.22
2023-02-15T10:50:51.926Z,5.20
2023-02-15T10:53:31.567Z,5.05
2023-02-15T10:56:10.245Z,4.94
2023-02-15T10:58:53.560Z,4.93
2023-02-15T11:01:27.451Z,4.92
2023-02-15T11:04:17.522Z,4.92
2023-02-15T11:06:52.396Z,5.00
2023-02-15T11:09:24.381Z,5.07
2023-02-15T11:11:56.684Z,5.23
2023-02-15T11:14:37.629Z,5.43
2023-02-15T11:17:12.183Z,5.60
2023-02-15T11:19:45.566Z,5.62
2023-02-15T11:22:15.252Z,5.82
2023-02-15T11:24:46.938Z,5.89
2023-02-15T11:27:22.604Z,5.10
2023-02-15T11:29:59.513Z,5.92
2023-02-15T11:32:32.671Z,5.77
2023-02-15T11:35:07.042Z,5.82
2023-02-15T11:37:40.723Z,5.71
2023-02-15T11:40:21.583Z,5.97
2023-02-15T11:42:51.795Z,5.80
2023-02-15T11:45:28.295Z,5.85
2023-02-15T11:47:58.480Z,6.02
2023-02-15T11:50:28.340Z,6.12
2023-02-15T11:53:00.950Z,6.18
2023-02-15T11:55:30.875Z,6.17
2023-02-15T11:58:08.264Z,6.54
2023-02-15T12:00:39.971Z,6.71
2023-02-15T12:03:18.498Z,6.20
2023-02-15T12:05:49.815Z,6.07
2023-02-15T12:08:21.306Z,6.17
2023-02-15T12:11:00.933Z,6.02
2023-02-15T12:13:29.236Z,6.17
2023-02-15T12:16:01.394Z,6.48
2023-02-15T12:18:42.564Z,6.63
2023-02-15T12:21:14.629Z,6.82
2023-02-15T12:23:49.542Z,6.69
2023-02-15T12:26:26.208Z,7.12
2023-02-15T12:28:55.652Z,7.35
2023-02-15T12:31:29.034Z,6.95
2023-02-15T12:34:02.956Z,7.01
2023-02-15T12:36:34.396Z,7.06
2023-02-15T12:39:20.806Z,7.19
2023-02-15T12:42:01.058Z,7.07
2023-02-15T12:44:31.418Z,6.88
2023-02-15T12:47:02.162Z,7.72
2023-02-15T12:49:32.842Z,7.98
2023-02-15T12:52:02.855Z,8.13
2023-02-15T12:54:37.411Z,8.24
2023-02-15T12:57:26.528Z,7.99
2023-02-15T12:59:57.006Z,7.94
2023-02-15T13:02:29.296Z,8.09
2023-02-15T13:05:06.427Z,8.16
2023-02-15T13:07:35.179Z,8.47
2023-02-15T13:10:03.710Z,8.00
2023-02-15T13:12:34.762Z,8.83
2023-02-15T13:15:04.282Z,9.12
2023-02-15T13:17:35.248Z,8.89
2023-02-15T13:20:10.891Z,9.24
2023-02-15T13:22:44.128Z,9.37
2023-02-15T13:25:17.064Z,9.02
2023-02-15T13:27:47.034Z,9.84
2023-02-15T13:30:28.153Z,10.02
2023-02-15T13:33:00.853Z,10.05
2023-02-15T13:35:39.402Z,9.87
2023-02-15T13:38:19.425Z,10.20
2023-02-15T13:40:54.760Z,10.31
2023-02-15T13:43:38.003Z,10.08
2023-02-15T13:46:20.425Z,9.87
2023-02-15T13:49:00.621Z,10.02
2023-02-15T13:51:39.144Z,10.11
2023-02-15T13:54:38.934Z,10.11
2023-02-15T13:57:26.633Z,10.15
2023-02-15T14:00:05.246Z,10.87
2023-02-15T14:03:07.502Z,11.23
2023-02-15T14:05:56.422Z,12.08
2023-02-15T14:08:41.589Z,13.29
2023-02-15T14:11:18.918Z,14.37
2023-02-15T14:14:13.563Z,15.52
2023-02-15T14:17:05.786Z,16.06
2023-02-15T14:19:40.796Z,16.48
2023-02-15T14:22:18.172Z,15.77
2023-02-15T14:25:01.109Z,16.07
2023-02-15T14:27:45.653Z,16.02
2023-02-15T14:30:20.453Z,16.17
2023-02-15T14:32:53.442Z,16.58
2023-02-15T14:35:24.269Z,16.05
2023-02-15T14:37:57.592Z,15.96
2023-02-15T14:40:53.792Z,14.46
2023-02-15T14:43:31.095Z,14.04
2023-02-15T14:46:09.386Z,14.49
2023-02-15T14:48:44.175Z,14.12
2023-02-15T14:51:13.528Z,12.80
2023-02-15T14:53:43.267Z,12.10
2023-02-15T14:56:27.748Z,10.55
2023-02-15T14:59:18.577Z,8.80
2023-02-15T15:01:59.088Z,8.50
2023-02-15T15:04:35.159Z,8.12
2023-02-15T15:07:10.868Z,7.86
2023-02-15T15:09:41.642Z,7.57
2023-02-15T15:12:39.251Z,7.23
2023-02-15T15:15:08.860Z,6.98
2023-02-15T15:17:56.665Z,6.91
2023-02-15T15:20:55.002Z,6.64
2023-02-15T15:23:46.493Z,6.42
2023-02-15T15:26:30.496Z,6.31
2023-02-15T15:29:04.675Z,6.19
2023-02-15T15:31:51.654Z,6.01
2023-02-15T15:35:02.428Z,5.80
2023-02-15T15:38:17.863Z,5.56
2023-02-15T15:41:18.762Z,5.44
2023-02-15T15:44:35.198Z,5.27
2023-02-15T15:47:18.984Z,5.19
2023-02-15T15:49:47.091Z,5.15
2023-02-15T15:52:17.655Z,5.09
2023-02-15T15:54:48.692Z,5.05
2023-02-15T15:57:21.331Z,4.45
2023-02-15T15:59:51.969Z,4.92
2023-02-15T16:02:20.370Z,4.78
2023-02-15T16:04:49.468Z,4.93
2023-02-15T16:07:28.490Z,4.70
2023-02-15T16:09:57.948Z,4.65
2023-02-15T16:12:27.391Z,3.64
2023-02-15T16:14:58.226Z,4.25
2023-02-15T16:17:29.165Z,3.84
2023-02-15T16:20:02.476Z,3.86
2023-02-15T16:22:31.042Z,3.93
2023-02-15T16:25:37.229Z,3.99
2023-02-15T16:28:10.466Z,3.94
2023-02-15T16:30:43.232Z,3.87
2023-02-15T16:33:13.172Z,3.38
2023-02-15T16:35:43.279Z,3.54
2023-02-15T16:38:12.715Z,3.54
2023-02-15T16:40:52.721Z,3.30
2023-02-15T16:43:27.025Z,3.09
2023-02-15T16:46:05.609Z,3.29
2023-02-15T16:48:36.501Z,3.24
2023-02-15T16:51:05.267Z,2.41
2023-02-15T16:53:33.688Z,3.23
2023-02-15T16:56:04.958Z,3.17
2023-02-15T16:58:39.450Z,3.03
2023-02-15T17:01:12.389Z,2.29
2023-02-15T17:03:41.944Z,2.41
2023-02-15T17:06:22.477Z,2.95
2023-02-15T17:08:50.731Z,2.95
2023-02-15T17:11:20.941Z,2.93
2023-02-15T17:14:16.262Z,2.97
2023-02-15T17:16:50.463Z,2.91
2023-02-15T17:19:23.833Z,2.70
2023-02-15T17:21:54.904Z,2.02
2023-02-15T17:24:31.713Z,2.77
2023-02-15T17:27:02.971Z,2.46
2023-02-15T17:29:36.364Z,2.79
2023-02-15T17:32:07.274Z,2.20
2023-02-15T17:35:01.113Z,2.77
2023-02-15T17:37:31.716Z,2.63
2023-02-15T17:40:01.219Z,2.80
2023-02-15T17:42:29.301Z,2.75
2023-02-15T17:44:57.467Z,2.72
2023-02-15T17:47:30.230Z,2.54
2023-02-15T17:49:58.415Z,2.53
2023-02-15T17:52:32.574Z,2.59
2023-02-15T17:55:18.037Z,2.66
2023-02-15T17:57:46.238Z,2.65
2023-02-15T18:00:33.797Z,2.28
2023-02-15T18:03:21.024Z,2.62
2023-02-15T18:06:06.411Z,2.63
2023-02-15T18:08:52.271Z,2.72
2023-02-15T18:11:36.261Z,2.74
2023-02-15T18:14:04.922Z,2.67
2023-02-15T18:16:35.976Z,2.57
2023-02-15T18:19:06.656Z,2.59
2023-02-15T18:21:35.163Z,2.54
2023-02-15T18:24:03.330Z,2.54
2023-02-15T18:26:31.666Z,1.74
2023-02-15T18:28:59.895Z,2.48
2023-02-15T18:31:28.270Z,2.36
2023-02-15T18:33:59.742Z,2.31
2023-02-15T18:36:32.846Z,2.27
2023-02-15T18:39:07.789Z,2.25
2023-02-15T18:41:37.136Z,2.37
2023-02-15T18:44:05.469Z,2.41
2023-02-15T18:46:33.600Z,2.31
2023-02-15T18:49:01.654Z,2.21
2023-02-15T18:51:35.626Z,2.19
2023-02-15T18:54:03.973Z,1.95
2023-02-15T18:56:33.017Z,2.10
2023-02-15T18:59:01.169Z,2.21
2023-02-15T19:01:29.726Z,2.24
2023-02-15T19:03:57.854Z,2.14
2023-02-15T19:06:26.050Z,1.96
2023-02-15T19:08:55.820Z,1.80
2023-02-15T19:11:27.263Z,0.62
2023-02-15T19:13:56.612Z,1.78
2023-02-15T19:16:31.492Z,1.72
2023-02-15T19:19:00.167Z,1.75
2023-02-15T19:21:29.859Z,1.77
2023-02-15T19:24:03.277Z,1.64
2023-02-15T19:26:44.336Z,1.77
2023-02-15T19:29:15.595Z,1.76
2023-02-15T19:31:43.972Z,1.82
2023-02-15T19:34:16.131Z,1.37
2023-02-15T19:36:45.713Z,1.72
2023-02-15T19:39:25.872Z,1.86
2023-02-15T19:41:54.508Z,1.81
2023-02-15T19:44:22.774Z,1.67
2023-02-15T19:46:50.940Z,1.91
2023-02-15T19:49:19.154Z,1.73
2023-02-15T19:51:47.751Z,1.60
2023-02-15T19:54:30.947Z,1.52
2023-02-15T19:56:59.393Z,1.43
2023-02-15T19:59:29.852Z,1.64
2023-02-15T20:01:58.465Z,1.65
2023-02-15T20:04:27.519Z,1.42
2023-02-15T20:06:58.416Z,0.95
2023-02-15T20:09:31.458Z,0.86
2023-02-15T20:11:59.658Z,1.43
2023-02-15T20:14:28.202Z,1.44
2023-02-15T20:16:56.461Z,0.52
2023-02-15T20:19:24.667Z,1.46
2023-02-15T20:21:55.047Z,1.26
2023-02-15T20:24:25.924Z,1.41
2023-02-15T20:26:55.556Z,1.49
2023-02-15T20:29:23.984Z,1.39
2023-02-15T20:31:55.170Z,1.27
2023-02-15T20:34:23.551Z,0.98
2023-02-15T20:36:52.684Z,1.28
2023-02-15T20:39:21.225Z,1.11
2023-02-15T20:41:49.392Z,1.25
2023-02-15T20:44:24.857Z,1.03
2023-02-15T20:46:56.622Z,1.27
2023-02-15T20:49:25.534Z,1.14
2023-02-15T20:51:55.567Z,1.22
2023-02-15T20:54:25.829Z,1.10
2023-02-15T20:56:54.461Z,0.87
2023-02-15T20:59:27.304Z,1.11
2023-02-15T21:01:59.868Z,1.12
2023-02-15T21:04:31.605Z,1.04
2023-02-15T21:07:00.192Z,0.88
2023-02-15T21:09:28.936Z,0.90
2023-02-15T21:12:02.767Z,0.96
2023-02-15T21:14:32.396Z,0.99
2023-02-15T21:17:00.812Z,1.01
2023-02-15T21:19:28.986Z,0.86
2023-02-15T21:21:58.076Z,0.98
2023-02-15T21:24:29.310Z,0.95
2023-02-15T21:26:59.694Z,0.96
2023-02-15T21:29:29.865Z,0.84
2023-02-15T21:32:00.645Z,0.91
2023-02-15T21:34:28.896Z,0.91
2023-02-15T21:36:57.410Z,0.92
2023-02-15T21:39:27.450Z,0.77
2023-02-15T21:42:14.411Z,0.81
2023-02-15T21:45:00.198Z,0.74
2023-02-15T21:47:48.925Z,0.66
2023-02-15T21:50:35.851Z,0.65
2023-02-15T21:53:05.282Z,0.78
2023-02-15T21:55:33.675Z,0.69
2023-02-15T21:58:01.953Z,0.56
2023-02-15T22:00:31.214Z,0.63
2023-02-15T22:03:02.180Z,0.57
2023-02-15T22:05:32.664Z,0.66
2023-02-15T22:08:01.312Z,0.68
2023-02-15T22:10:32.506Z,0.60
2023-02-15T22:13:02.193Z,0.76
2023-02-15T22:15:35.436Z,0.63
2023-02-15T22:18:06.176Z,0.54
2023-02-15T22:20:34.512Z,0.52
2023-02-15T22:23:02.682Z,0.59
2023-02-15T22:25:30.856Z,0.59
2023-02-15T22:27:59.107Z,0.61
2023-02-15T22:30:30.290Z,0.49
2023-02-15T22:33:00.001Z,0.33
2023-02-15T22:35:31.317Z,0.29
2023-02-15T22:37:59.893Z,0.40
2023-02-15T22:40:31.462Z,0.23
2023-02-15T22:43:03.817Z,0.17
2023-02-15T22:45:33.850Z,0.37
2023-02-15T22:48:02.648Z,-0.38
2023-02-15T22:50:35.033Z,0.42
2023-02-15T22:53:05.193Z,0.50
2023-02-15T22:55:37.453Z,0.40
2023-02-15T22:58:06.374Z,0.38
2023-02-15T23:00:39.844Z,0.34
2023-02-15T23:03:16.885Z,0.32
2023-02-15T23:05:47.149Z,0.40
2023-02-15T23:08:15.951Z,0.43
2023-02-15T23:10:46.123Z,0.31
2023-02-15T23:13:25.445Z,-0.59
2023-02-15T23:15:57.866Z,-0.86
2023-02-15T23:18:29.040Z,0.19
2023-02-15T23:21:00.626Z,0.10
2023-02-15T23:23:34.735Z,0.18
2023-02-15T23:26:04.750Z,-0.80
2023-02-15T23:28:36.866Z,-0.04
2023-02-15T23:31:15.708Z,-0.08
2023-02-15T23:33:44.491Z,-0.09
2023-02-15T23:36:25.977Z,0.02
2023-02-15T23:38:54.758Z,0.05
2023-02-15T23:41:25.808Z,0.06
2023-02-15T23:43:57.995Z,0.02
2023-02-15T23:46:29.347Z,0.04
2023-02-15T23:48:58.137Z,-0.18
2023-02-15T23:51:33.217Z,0.01
2023-02-15T23:54:01.368Z,-0.06
2023-02-15T23:56:29.590Z,-0.08
2023-02-15T23:58:57.814Z,-0.05
